Dover, Michigan
Current Conditions -  °F | °C
As of 3:53 PM on Friday 19 Dec 2014 (Local Time) from KARB Reporting Station
Overcast Overcast  
Wind Chill: 28°   Ceiling: 1700
Heat Index: 28°   Visibility: 10mi
Dew Point: 21°   Wind: 3mph
Humidity: 75%   Direction: 350°N
Pressure: 30.26"   Gusts: NA
Location:  42.3528°N, 83.8974°W
Report Text: KARB 192053Z 35003KT 10SM OVC017 M02/M06 A3026 RMK AO2 SLP259 T10221061 53002
Loading
Personal Weather Stations






























Interactive Weather Map New forecast layout! Learn more

10-Day Weather Forecast

Advertisements
Track Severe Weather on mobile